Crumpler, North Carolina
Current Conditions -  °F | °C
As of 11:35 AM on Friday 24 Oct 2014 (Local Time) from KGEV Reporting Station
Clear Clear  
Wind Chill: 54°   Ceiling: Unl
Heat Index: 54°   Visibility: 10mi
Dew Point: 34°   Wind: 3mph
Humidity: 47%   Direction: 80°E
Pressure: 30.09"   Gusts: NA
Location:  36.5°N, 81.39°W
Report Text: KGEV 241535Z AUTO 08003KT 10SM CLR 12/01 A3009 RMK AO2 T01240012
Loading
Personal Weather Stations






























Interactive Weather Map
Tropical Storm Tracking
New forecast layout! Learn more

10-Day Weather Forecast

Advertisements
Track Severe Weather on mobile